createdAt,value
2018-03-28T00:01:29.448Z,80.78
2018-03-28T00:03:56.972Z,56.97
2018-03-28T00:06:24.528Z,58.83
2018-03-28T00:08:52.821Z,65.32
2018-03-28T00:11:21.188Z,62.35
2018-03-28T00:13:50.301Z,62.58
2018-03-28T00:16:17.840Z,61.85
2018-03-28T00:18:46.176Z,64.00
2018-03-28T00:21:13.688Z,55.53
2018-03-28T00:23:41.215Z,63.25
2018-03-28T00:26:08.738Z,57.40
2018-03-28T00:28:37.046Z,62.05
2018-03-28T00:31:04.594Z,66.03
2018-03-28T00:33:32.145Z,57.95
2018-03-28T00:35:59.674Z,60.50
2018-03-28T00:38:27.220Z,63.05
2018-03-28T00:40:54.764Z,57.40
2018-03-28T00:43:22.281Z,59.97
2018-03-28T00:45:49.839Z,62.50
2018-03-28T00:48:17.356Z,55.15
2018-03-28T00:50:44.880Z,52.20
2018-03-28T00:53:12.392Z,55.83
2018-03-28T00:55:39.913Z,57.13
2018-03-28T00:58:07.832Z,54.38
2018-03-28T01:00:35.363Z,49.47
2018-03-28T01:03:02.881Z,55.80
2018-03-28T01:05:30.428Z,75.07
2018-03-28T01:07:58.066Z,66.07
2018-03-28T01:10:25.618Z,80.18
2018-03-28T01:12:53.167Z,99.80
2018-03-28T01:15:20.688Z,74.70
2018-03-28T01:17:49.000Z,77.05
2018-03-28T01:20:16.516Z,82.68
2018-03-28T01:22:44.063Z,67.82
2018-03-28T01:25:11.602Z,81.60
2018-03-28T01:27:39.109Z,75.68
2018-03-28T01:30:06.657Z,69.20
2018-03-28T01:32:34.939Z,75.03
2018-03-28T01:35:03.226Z,71.03
2018-03-28T01:37:30.782Z,63.17
2018-03-28T01:39:58.958Z,83.25
2018-03-28T01:42:26.507Z,99.90
2018-03-28T01:44:54.020Z,97.35
2018-03-28T01:47:21.528Z,71.97
2018-03-28T01:49:49.076Z,63.38
2018-03-28T01:52:16.622Z,65.70
2018-03-28T01:54:45.769Z,90.62
2018-03-28T01:57:13.304Z,63.60
2018-03-28T01:59:40.827Z,94.35
2018-03-28T02:02:08.369Z,83.43
2018-03-28T02:04:35.880Z,110.10
2018-03-28T02:07:03.424Z,86.80
2018-03-28T02:09:31.080Z,108.90
2018-03-28T02:11:59.357Z,119.40
2018-03-28T02:14:27.633Z,78.47
2018-03-28T02:16:55.915Z,93.80
2018-03-28T02:19:23.879Z,75.28
2018-03-28T02:21:51.384Z,70.57
2018-03-28T02:24:18.937Z,65.78
2018-03-28T02:26:46.456Z,58.85
2018-03-28T02:29:13.980Z,59.70
2018-03-28T02:31:41.513Z,69.95
2018-03-28T02:34:09.049Z,61.72
2018-03-28T02:36:37.349Z,59.72
2018-03-28T02:39:05.669Z,81.60
2018-03-28T02:41:33.945Z,75.45
2018-03-28T02:44:02.261Z,56.47
2018-03-28T02:46:29.864Z,59.50
2018-03-28T02:48:57.380Z,53.00
2018-03-28T02:51:24.917Z,64.95
2018-03-28T02:53:52.434Z,95.32
2018-03-28T02:56:19.990Z,81.00
2018-03-28T02:58:49.006Z,72.43
2018-03-28T03:01:17.317Z,93.93
2018-03-28T03:03:44.861Z,65.57
2018-03-28T03:06:12.393Z,58.40
2018-03-28T03:08:39.936Z,69.62
2018-03-28T03:11:07.441Z,62.08
2018-03-28T03:13:35.041Z,64.87
2018-03-28T03:16:02.583Z,54.40
2018-03-28T03:18:30.113Z,42.62
2018-03-28T03:20:57.662Z,44.60
2018-03-28T03:23:25.175Z,48.10
2018-03-28T03:25:52.883Z,45.75
2018-03-28T03:28:21.182Z,60.53
2018-03-28T03:30:48.696Z,45.63
2018-03-28T03:33:16.214Z,63.67
2018-03-28T03:35:43.745Z,57.17
2018-03-28T03:38:11.297Z,69.00
2018-03-28T03:40:38.844Z,62.08
2018-03-28T03:43:07.153Z,77.82
2018-03-28T03:45:34.704Z,72.22
2018-03-28T03:48:02.216Z,50.30
2018-03-28T03:50:29.765Z,59.88
2018-03-28T03:52:57.271Z,68.72
2018-03-28T03:55:24.812Z,58.50
2018-03-28T03:57:53.113Z,61.90
2018-03-28T04:00:20.624Z,73.05
2018-03-28T04:02:48.164Z,64.80
2018-03-28T04:05:15.704Z,63.08
2018-03-28T04:07:43.210Z,59.10
2018-03-28T04:10:10.744Z,60.80
2018-03-28T04:12:38.256Z,60.97
2018-03-28T04:15:06.553Z,50.95
2018-03-28T04:17:34.863Z,61.92
2018-03-28T04:20:02.392Z,66.62
2018-03-28T04:22:29.902Z,58.87
2018-03-28T04:24:57.412Z,62.50
2018-03-28T04:27:24.939Z,58.05
2018-03-28T04:29:52.455Z,56.47
2018-03-28T04:32:19.992Z,53.97
2018-03-28T04:34:47.536Z,61.28
2018-03-28T04:37:15.064Z,50.28
2018-03-28T04:39:43.365Z,53.60
2018-03-28T04:42:10.876Z,53.15
2018-03-28T04:44:38.459Z,55.70
2018-03-28T04:47:06.731Z,58.25
2018-03-28T04:49:35.024Z,50.60
2018-03-28T04:52:02.580Z,54.08
2018-03-28T04:54:30.087Z,57.92
2018-03-28T04:56:57.628Z,55.50
2018-03-28T04:59:25.197Z,51.33
2018-03-28T05:01:52.752Z,46.65
2018-03-28T05:04:20.279Z,54.42
2018-03-28T05:06:47.805Z,47.10
2018-03-28T05:09:16.162Z,43.10
2018-03-28T05:11:43.725Z,47.67
2018-03-28T05:14:11.257Z,45.55
2018-03-28T05:16:38.796Z,42.45
2018-03-28T05:19:06.333Z,47.70
2018-03-28T05:21:33.867Z,43.17
2018-03-28T05:24:01.376Z,46.05
2018-03-28T05:26:28.914Z,44.55
2018-03-28T05:28:56.447Z,50.92
2018-03-28T05:31:23.962Z,46.37
2018-03-28T05:33:51.491Z,42.50
2018-03-28T05:36:19.796Z,38.35
2018-03-28T05:38:47.380Z,39.72
2018-03-28T05:41:14.921Z,36.28
2018-03-28T05:43:42.461Z,32.40
2018-03-28T05:46:10.006Z,38.58
2018-03-28T05:48:38.284Z,26.35
2018-03-28T05:51:05.813Z,30.95
2018-03-28T05:53:33.327Z,21.67
2018-03-28T05:56:00.874Z,23.98
2018-03-28T05:58:28.418Z,28.45
2018-03-28T06:00:55.969Z,21.83
2018-03-28T06:03:23.515Z,24.65
2018-03-28T06:05:51.823Z,25.70
2018-03-28T06:08:19.374Z,20.83
2018-03-28T06:10:47.136Z,20.08
2018-03-28T06:13:14.660Z,21.23
2018-03-28T06:15:42.195Z,15.98
2018-03-28T06:18:09.740Z,18.87
2018-03-28T06:20:37.252Z,17.52
2018-03-28T06:23:04.799Z,21.73
2018-03-28T06:25:32.345Z,17.67
2018-03-28T06:27:59.864Z,23.48
2018-03-28T06:30:27.373Z,19.58
2018-03-28T06:32:54.922Z,22.30
2018-03-28T06:35:22.468Z,21.48
2018-03-28T06:37:50.021Z,19.80
2018-03-28T06:40:17.533Z,16.05
2018-03-28T06:42:45.105Z,19.40
2018-03-28T06:45:12.717Z,20.30
2018-03-28T06:47:40.241Z,18.58
2018-03-28T06:50:07.797Z,20.02
2018-03-28T06:52:35.367Z,21.75
2018-03-28T06:55:02.875Z,15.77
2018-03-28T06:57:30.384Z,16.33
2018-03-28T06:59:57.924Z,18.00
2018-03-28T07:02:25.452Z,20.12
2018-03-28T07:04:53.134Z,12.27
2018-03-28T07:07:20.675Z,10.82
2018-03-28T07:09:48.951Z,19.35
2018-03-28T07:12:17.251Z,13.18
2018-03-28T07:14:44.797Z,25.40
2018-03-28T07:17:12.329Z,22.92
2018-03-28T07:19:39.840Z,17.33
2018-03-28T07:22:07.359Z,15.70
2018-03-28T07:24:34.872Z,17.33
2018-03-28T07:27:02.406Z,21.77
2018-03-28T07:29:29.953Z,16.67
2018-03-28T07:31:57.475Z,22.58
2018-03-28T07:34:25.773Z,12.52
2018-03-28T07:36:53.326Z,11.82
2018-03-28T07:39:20.844Z,19.27
2018-03-28T07:41:48.361Z,15.40
2018-03-28T07:44:15.874Z,12.35
2018-03-28T07:46:43.393Z,13.60
2018-03-28T07:49:10.938Z,11.98
2018-03-28T07:51:38.521Z,15.75
2018-03-28T07:54:06.177Z,11.60
2018-03-28T07:56:33.688Z,9.77
2018-03-28T07:59:01.964Z,12.98
2018-03-28T08:01:30.270Z,8.15
2018-03-28T08:03:57.819Z,8.70
2018-03-28T08:06:25.397Z,8.82
2018-03-28T08:08:52.959Z,8.88
2018-03-28T08:11:20.507Z,11.05
2018-03-28T08:13:48.278Z,9.18
2018-03-28T08:16:15.817Z,6.10
2018-03-28T08:18:43.324Z,6.78
2018-03-28T08:21:10.825Z,5.72
2018-03-28T08:23:38.378Z,15.05
2018-03-28T08:26:06.680Z,11.00
2018-03-28T08:28:34.219Z,6.75
2018-03-28T08:31:01.888Z,7.18
2018-03-28T08:33:29.584Z,6.93
2018-03-28T08:35:57.939Z,7.90
2018-03-28T08:38:25.469Z,9.65
2018-03-28T08:40:53.021Z,8.45
2018-03-28T08:43:21.300Z,10.70
2018-03-28T08:45:50.012Z,9.38
2018-03-28T08:48:17.520Z,6.75
2018-03-28T08:50:45.081Z,7.15
2018-03-28T08:53:13.454Z,10.38
2018-03-28T08:55:41.237Z,7.18
2018-03-28T08:58:08.933Z,11.73
2018-03-28T09:00:36.446Z,6.72
2018-03-28T09:03:03.959Z,9.60
2018-03-28T09:05:31.502Z,9.75
2018-03-28T09:07:59.090Z,12.30
2018-03-28T09:10:26.641Z,6.80
2018-03-28T09:12:54.217Z,9.98
2018-03-28T09:15:21.772Z,8.07
2018-03-28T09:17:49.345Z,10.80
2018-03-28T09:20:16.893Z,8.35
2018-03-28T09:22:44.411Z,11.50
2018-03-28T09:25:12.480Z,13.48
2018-03-28T09:27:40.065Z,10.40
2018-03-28T09:30:07.853Z,8.10
2018-03-28T09:32:35.377Z,8.55
2018-03-28T09:35:02.938Z,8.82
2018-03-28T09:37:30.655Z,9.40
2018-03-28T09:39:59.005Z,7.60
2018-03-28T09:42:26.543Z,7.07
2018-03-28T09:44:54.084Z,11.65
2018-03-28T09:47:21.777Z,13.00
2018-03-28T09:49:49.326Z,7.75
2018-03-28T09:52:16.862Z,7.68
2018-03-28T09:54:44.439Z,8.35
2018-03-28T09:57:11.983Z,7.15
2018-03-28T09:59:39.534Z,6.65
2018-03-28T10:02:10.994Z,6.50
2018-03-28T10:04:44.280Z,5.60
2018-03-28T10:07:11.795Z,8.20
2018-03-28T10:09:39.325Z,6.80
2018-03-28T10:12:06.844Z,7.82
2018-03-28T10:14:34.676Z,6.95
2018-03-28T10:17:02.204Z,7.22
2018-03-28T10:19:29.712Z,6.95
2018-03-28T10:21:57.239Z,9.68
2018-03-28T10:24:24.776Z,6.57
2018-03-28T10:26:52.292Z,6.72
2018-03-28T10:29:19.841Z,6.45
2018-03-28T10:31:48.900Z,7.00
2018-03-28T10:34:16.407Z,6.72
2018-03-28T10:36:43.960Z,10.60
2018-03-28T10:39:11.464Z,7.05
2018-03-28T10:41:39.004Z,7.95
2018-03-28T10:44:06.544Z,8.90
2018-03-28T10:46:34.845Z,6.90
2018-03-28T10:49:02.360Z,7.18
2018-03-28T10:51:29.885Z,7.20
2018-03-28T10:53:57.411Z,10.02
2018-03-28T10:56:24.928Z,10.50
2018-03-28T10:58:52.525Z,7.22
2018-03-28T11:01:20.037Z,7.43
2018-03-28T11:03:47.548Z,7.12
2018-03-28T11:06:15.076Z,7.25
2018-03-28T11:08:42.585Z,10.60
2018-03-28T11:11:10.098Z,6.55
2018-03-28T11:13:37.645Z,8.23
2018-03-28T11:16:05.923Z,7.68
2018-03-28T11:18:33.448Z,7.85
2018-03-28T11:21:01.044Z,6.45
2018-03-28T11:23:28.564Z,16.35
2018-03-28T11:25:56.177Z,8.15
2018-03-28T11:28:23.790Z,13.43
2018-03-28T11:30:51.326Z,9.43
2018-03-28T11:33:18.888Z,9.50
2018-03-28T11:35:46.446Z,6.28
2018-03-28T11:38:13.968Z,16.52
2018-03-28T11:40:41.492Z,9.43
2018-03-28T11:43:09.022Z,6.75
2018-03-28T11:45:36.590Z,6.30
2018-03-28T11:48:04.171Z,6.97
2018-03-28T11:50:31.713Z,10.90
2018-03-28T11:52:59.306Z,5.25
2018-03-28T11:55:26.784Z,8.15
2018-03-28T11:57:55.339Z,7.40
2018-03-28T12:00:22.880Z,9.77
2018-03-28T12:02:50.421Z,5.72
2018-03-28T12:05:17.936Z,15.13
2018-03-28T12:07:45.443Z,25.75
2018-03-28T12:10:12.996Z,5.53
2018-03-28T12:12:40.594Z,7.87
2018-03-28T12:15:08.137Z,10.02
2018-03-28T12:17:35.649Z,5.70
2018-03-28T12:20:03.198Z,4.60
2018-03-28T12:22:31.478Z,6.05
2018-03-28T12:24:59.784Z,16.90
2018-03-28T12:27:27.342Z,6.78
2018-03-28T12:29:54.956Z,6.60
2018-03-28T12:32:22.465Z,6.50
2018-03-28T12:34:50.009Z,6.30
2018-03-28T12:37:17.559Z,4.25
2018-03-28T12:39:45.108Z,6.07
2018-03-28T12:42:13.400Z,12.65
2018-03-28T12:44:40.953Z,6.20
2018-03-28T12:47:08.493Z,8.48
2018-03-28T12:49:36.105Z,7.18
2018-03-28T12:52:03.624Z,5.50
2018-03-28T12:54:31.153Z,5.43
2018-03-28T12:56:58.666Z,5.15
2018-03-28T12:59:26.172Z,5.50
2018-03-28T13:01:53.704Z,4.55
2018-03-28T13:04:21.253Z,3.70
2018-03-28T13:06:48.768Z,10.52
2018-03-28T13:09:16.316Z,7.28
2018-03-28T13:11:43.832Z,4.95
2018-03-28T13:14:11.382Z,4.35
2018-03-28T13:16:39.045Z,5.30
2018-03-28T13:19:06.621Z,5.78
2018-03-28T13:21:34.161Z,9.40
2018-03-28T13:24:01.705Z,3.12
2018-03-28T13:26:29.216Z,3.55
2018-03-28T13:28:57.501Z,7.87
2018-03-28T13:31:25.021Z,9.85
2018-03-28T13:33:52.552Z,4.62
2018-03-28T13:36:20.072Z,3.15
2018-03-28T13:38:47.646Z,8.13
2018-03-28T13:41:15.935Z,8.52
2018-03-28T13:43:44.218Z,5.35
2018-03-28T13:46:11.758Z,6.53
2018-03-28T13:48:39.281Z,4.25
2018-03-28T13:51:06.943Z,9.23
2018-03-28T13:53:34.462Z,5.60
2018-03-28T13:56:02.058Z,10.73
2018-03-28T13:58:29.576Z,7.18
2018-03-28T14:00:57.093Z,11.12
2018-03-28T14:03:26.108Z,4.28
2018-03-28T14:05:54.416Z,10.68
2018-03-28T14:08:21.935Z,5.82
2018-03-28T14:10:49.516Z,3.50
2018-03-28T14:13:17.835Z,4.43
2018-03-28T14:15:45.360Z,3.72
2018-03-28T14:18:12.916Z,4.90
2018-03-28T14:20:40.464Z,3.75
2018-03-28T14:23:08.041Z,5.65
2018-03-28T14:25:35.606Z,5.45
2018-03-28T14:28:03.115Z,6.45
2018-03-28T14:30:30.894Z,4.80
2018-03-28T14:32:58.504Z,5.32
2018-03-28T14:35:26.083Z,9.80
2018-03-28T14:37:53.612Z,4.37
2018-03-28T14:40:21.155Z,5.35
2018-03-28T14:42:54.588Z,8.15
2018-03-28T14:45:16.971Z,5.57
2018-03-28T14:47:45.277Z,6.97
2018-03-28T14:50:12.787Z,7.95
2018-03-28T14:52:40.325Z,4.95
2018-03-28T14:55:07.841Z,12.65
2018-03-28T14:57:35.352Z,7.35
2018-03-28T15:00:02.930Z,9.73
2018-03-28T15:02:30.443Z,11.75
2018-03-28T15:04:57.986Z,8.48
2018-03-28T15:07:25.502Z,12.50
2018-03-28T15:09:53.014Z,9.10
2018-03-28T15:12:20.560Z,12.20
2018-03-28T15:14:48.081Z,6.85
2018-03-28T15:17:16.367Z,9.63
2018-03-28T15:19:44.688Z,9.32
2018-03-28T15:22:12.241Z,7.43
2018-03-28T15:24:39.785Z,8.00
2018-03-28T15:27:07.365Z,9.55
2018-03-28T15:29:34.873Z,5.40
2018-03-28T15:32:02.437Z,6.00
2018-03-28T15:34:30.764Z,6.53
2018-03-28T15:36:58.325Z,4.62
2018-03-28T15:39:25.938Z,12.98
2018-03-28T15:41:53.411Z,4.70
2018-03-28T15:44:20.993Z,5.07
2018-03-28T15:46:49.342Z,12.88
2018-03-28T15:49:16.944Z,5.40
2018-03-28T15:51:44.481Z,9.02
2018-03-28T15:54:12.006Z,6.15
2018-03-28T15:56:39.557Z,7.57
2018-03-28T15:59:07.906Z,11.23
2018-03-28T16:01:35.375Z,6.45
2018-03-28T16:04:03.028Z,9.40
2018-03-28T16:06:30.541Z,6.60
2018-03-28T16:08:58.073Z,5.62
2018-03-28T16:11:26.374Z,11.40
2018-03-28T16:13:53.921Z,6.85
2018-03-28T16:16:21.620Z,7.82
2018-03-28T16:18:49.234Z,6.10
2018-03-28T16:21:16.783Z,5.60
2018-03-28T16:23:45.065Z,6.90
2018-03-28T16:26:13.370Z,10.82
2018-03-28T16:28:40.913Z,11.82
2018-03-28T16:31:08.483Z,13.35
2018-03-28T16:33:36.037Z,11.25
2018-03-28T16:36:03.585Z,8.05
2018-03-28T16:38:31.865Z,9.23
2018-03-28T16:41:00.159Z,7.68
2018-03-28T16:43:28.471Z,12.82
2018-03-28T16:45:56.023Z,7.28
2018-03-28T16:48:25.302Z,9.48
2018-03-28T16:50:52.810Z,5.68
2018-03-28T16:53:20.324Z,5.70
2018-03-28T16:55:47.876Z,5.40
2018-03-28T16:58:15.375Z,6.47
2018-03-28T17:00:42.892Z,7.78
2018-03-28T17:03:10.436Z,5.43
2018-03-28T17:05:37.996Z,7.00
2018-03-28T17:08:05.572Z,6.45
2018-03-28T17:10:33.160Z,10.77
2018-03-28T17:13:00.663Z,6.18
2018-03-28T17:15:28.190Z,7.20
2018-03-28T17:17:55.715Z,5.85
2018-03-28T17:20:23.252Z,5.45
2018-03-28T17:22:50.772Z,5.50
2018-03-28T17:25:18.322Z,6.95
2018-03-28T17:27:45.897Z,7.87
2018-03-28T17:30:13.404Z,5.82
2018-03-28T17:32:40.933Z,3.80
2018-03-28T17:35:08.543Z,3.20
2018-03-28T17:37:36.093Z,6.78
2018-03-28T17:40:03.647Z,6.28
2018-03-28T17:42:31.268Z,4.75
2018-03-28T17:44:58.821Z,3.75
2018-03-28T17:47:26.353Z,6.60
2018-03-28T17:49:53.852Z,4.25
2018-03-28T17:52:22.142Z,3.60
2018-03-28T17:54:49.701Z,3.05
2018-03-28T17:57:17.263Z,3.30
2018-03-28T17:59:44.809Z,2.58
2018-03-28T18:02:13.360Z,3.15
2018-03-28T18:04:40.921Z,3.15
2018-03-28T18:07:08.478Z,2.40
2018-03-28T18:09:36.052Z,2.37
2018-03-28T18:12:03.574Z,2.47
2018-03-28T18:14:31.120Z,2.50
2018-03-28T18:16:58.679Z,2.70
2018-03-28T18:19:26.286Z,4.10
2018-03-28T18:21:53.798Z,4.10
2018-03-28T18:24:22.251Z,3.83
2018-03-28T18:26:49.820Z,2.60
2018-03-28T18:29:18.108Z,3.85
2018-03-28T18:31:45.643Z,2.20
2018-03-28T18:34:13.934Z,1.95
2018-03-28T18:36:41.499Z,2.25
2018-03-28T18:39:09.151Z,2.75
2018-03-28T18:41:36.689Z,1.90
2018-03-28T18:44:04.246Z,2.55
2018-03-28T18:46:31.790Z,2.05
2018-03-28T18:48:59.321Z,2.10
2018-03-28T18:51:26.834Z,1.67
2018-03-28T18:53:54.342Z,2.62
2018-03-28T18:56:21.968Z,2.12
2018-03-28T18:58:49.475Z,2.72
2018-03-28T19:01:17.030Z,3.53
2018-03-28T19:03:44.578Z,2.05
2018-03-28T19:06:12.090Z,3.12
2018-03-28T19:08:40.484Z,3.17
2018-03-28T19:11:08.059Z,4.95
2018-03-28T19:13:35.609Z,3.40
2018-03-28T19:16:03.149Z,2.30
2018-03-28T19:18:30.709Z,2.50
2018-03-28T19:20:59.024Z,2.53
2018-03-28T19:23:26.618Z,2.87
2018-03-28T19:25:54.133Z,4.35
2018-03-28T19:28:21.680Z,3.75
2018-03-28T19:30:49.208Z,4.30
2018-03-28T19:33:17.486Z,4.68
2018-03-28T19:35:45.785Z,5.50
2018-03-28T19:38:13.368Z,4.22
2018-03-28T19:40:40.893Z,3.92
2018-03-28T19:43:09.219Z,3.80
2018-03-28T19:45:36.737Z,4.07
2018-03-28T19:48:04.294Z,4.87
2018-03-28T19:50:31.821Z,3.50
2018-03-28T19:53:00.860Z,4.18
2018-03-28T19:55:28.412Z,4.53
2018-03-28T19:57:55.974Z,4.85
2018-03-28T20:00:23.494Z,4.50
2018-03-28T20:02:51.078Z,5.57
2018-03-28T20:05:18.604Z,5.35
2018-03-28T20:07:46.119Z,4.75
2018-03-28T20:10:13.647Z,5.82
2018-03-28T20:12:41.942Z,5.10
2018-03-28T20:15:09.469Z,5.50
2018-03-28T20:17:36.998Z,5.95
2018-03-28T20:20:04.570Z,4.62
2018-03-28T20:22:32.127Z,6.00
2018-03-28T20:24:59.665Z,5.75
2018-03-28T20:27:27.228Z,5.97
2018-03-28T20:29:54.794Z,5.30
2018-03-28T20:32:22.362Z,5.12
2018-03-28T20:34:49.906Z,6.10
2018-03-28T20:37:17.481Z,5.70
2018-03-28T20:39:45.023Z,5.60
2018-03-28T20:42:12.579Z,5.50
2018-03-28T20:44:40.098Z,6.87
2018-03-28T20:47:07.612Z,6.07
2018-03-28T20:49:35.120Z,6.20
2018-03-28T20:52:02.628Z,5.22
2018-03-28T20:54:30.169Z,4.50
2018-03-28T20:56:57.682Z,3.40
2018-03-28T20:59:25.213Z,3.30
2018-03-28T21:01:52.757Z,3.47
2018-03-28T21:04:20.311Z,3.30
2018-03-28T21:06:47.846Z,2.70
2018-03-28T21:09:15.360Z,2.70
2018-03-28T21:11:42.920Z,2.90
2018-03-28T21:14:10.478Z,2.42
2018-03-28T21:16:38.022Z,2.33
2018-03-28T21:19:05.565Z,2.45
2018-03-28T21:21:33.105Z,4.12
2018-03-28T21:24:00.615Z,2.00
2018-03-28T21:26:28.891Z,1.75
2018-03-28T21:28:57.165Z,1.85
2018-03-28T21:31:25.460Z,4.57
2018-03-28T21:33:52.973Z,1.92
2018-03-28T21:36:20.487Z,2.53
2018-03-28T21:38:48.039Z,2.80
2018-03-28T21:41:15.569Z,2.12
2018-03-28T21:43:43.116Z,1.58
2018-03-28T21:46:10.653Z,1.73
2018-03-28T21:48:38.167Z,1.55
2018-03-28T21:51:05.697Z,1.30
2018-03-28T21:53:33.986Z,4.25
2018-03-28T21:56:02.291Z,1.52
2018-03-28T21:58:29.832Z,1.80
2018-03-28T22:00:57.335Z,2.72
2018-03-28T22:03:24.864Z,1.52
2018-03-28T22:05:52.403Z,3.90
2018-03-28T22:08:19.905Z,1.40
2018-03-28T22:10:47.442Z,1.87
2018-03-28T22:13:14.981Z,1.20
2018-03-28T22:15:42.490Z,1.60
2018-03-28T22:18:10.000Z,1.87
2018-03-28T22:20:39.068Z,2.00
2018-03-28T22:23:06.578Z,1.98
2018-03-28T22:25:34.086Z,1.80
2018-03-28T22:28:01.598Z,2.20
2018-03-28T22:30:29.117Z,2.20
2018-03-28T22:32:57.412Z,2.70
2018-03-28T22:35:24.924Z,2.00
2018-03-28T22:37:53.232Z,3.35
2018-03-28T22:40:20.760Z,4.37
2018-03-28T22:42:49.068Z,2.10
2018-03-28T22:45:16.612Z,2.30
2018-03-28T22:47:44.159Z,3.00
2018-03-28T22:50:12.457Z,2.05
2018-03-28T22:52:39.964Z,2.20
2018-03-28T22:55:07.508Z,2.30
2018-03-28T22:57:35.027Z,2.72
2018-03-28T23:00:03.316Z,3.62
2018-03-28T23:02:30.828Z,3.10
2018-03-28T23:04:58.356Z,3.35
2018-03-28T23:07:25.900Z,2.80
2018-03-28T23:09:53.419Z,3.65
2018-03-28T23:12:20.940Z,4.03
2018-03-28T23:14:48.497Z,4.57
2018-03-28T23:17:16.041Z,3.80
2018-03-28T23:19:43.532Z,4.45
2018-03-28T23:22:22.950Z,3.80
2018-03-28T23:24:50.476Z,3.90
2018-03-28T23:27:18.005Z,3.72
2018-03-28T23:29:46.324Z,3.47
2018-03-28T23:32:13.846Z,4.30
2018-03-28T23:34:41.345Z,4.25
2018-03-28T23:37:08.848Z,4.78
2018-03-28T23:39:37.152Z,4.07
2018-03-28T23:42:04.660Z,4.72
2018-03-28T23:44:32.202Z,3.60
2018-03-28T23:46:59.716Z,4.30
2018-03-28T23:49:27.985Z,4.03
2018-03-28T23:51:56.268Z,4.40
2018-03-28T23:54:24.532Z,4.97
2018-03-28T23:56:52.070Z,4.12
2018-03-28T23:59:19.567Z,4.57
